Time;durP1;ratioP1;P1;durP2;ratioP2;P2;SDS_P1;SDS_P2;PMS_P1;PMS_P2;Temp;Humidity;BMP_temperature;BMP_pressure;BME280_temperature;BME280_humidity;BME280_pressure;Samples;Min_cycle;Max_cycle;Signal;HPM_P1;HPM_P2
2022/06/18 00:00:47;;;;;;;58.50;25.95;;;16.90;99.90;;;;;;5053943;28;20173;-57
2022/06/18 00:03:14;;;;;;;54.38;25.88;;;16.80;99.90;;;;;;5053711;28;20550;-57
2022/06/18 00:05:41;;;;;;;47.58;25.73;;;16.90;99.90;;;;;;5053703;28;20172;-57
2022/06/18 00:08:20;;;;;;;56.10;25.35;;;16.90;99.90;;;;;;5053648;28;20157;-57
2022/06/18 00:10:47;;;;;;;49.40;24.73;;;16.90;99.90;;;;;;5053656;28;20254;-57
2022/06/18 00:13:39;;;;;;;48.85;25.65;;;16.90;99.90;;;;;;5053685;28;20172;-58
2022/06/18 00:16:06;;;;;;;46.38;24.20;;;17.00;99.90;;;;;;5053700;28;20188;-57
2022/06/18 00:18:31;;;;;;;47.50;23.70;;;17.00;99.90;;;;;;5053646;28;20252;-57
2022/06/18 00:21:00;;;;;;;52.75;24.58;;;17.00;99.90;;;;;;5053703;28;20637;-57
2022/06/18 00:23:26;;;;;;;54.78;24.00;;;17.00;99.90;;;;;;5053442;28;20629;-57
2022/06/18 00:25:52;;;;;;;52.00;24.48;;;17.00;99.90;;;;;;5053339;28;20184;-57
2022/06/18 00:28:22;;;;;;;45.67;22.92;;;17.00;99.90;;;;;;5053302;28;20201;-57
2022/06/18 00:30:48;;;;;;;44.83;22.92;;;17.00;99.90;;;;;;5053235;28;20220;-57
2022/06/18 00:33:14;;;;;;;51.97;22.08;;;17.10;99.90;;;;;;5052662;28;20174;-57
2022/06/18 00:35:41;;;;;;;40.28;21.35;;;17.10;99.90;;;;;;5053100;28;20325;-57
2022/06/18 00:38:13;;;;;;;44.85;21.73;;;17.10;99.90;;;;;;5053158;28;20173;-57
2022/06/18 00:40:41;;;;;;;46.80;22.77;;;17.10;99.90;;;;;;5053089;28;20224;-57
2022/06/18 00:43:27;;;;;;;39.97;22.48;;;17.10;99.90;;;;;;5053079;28;20189;-57
2022/06/18 00:45:56;;;;;;;44.10;21.30;;;17.10;99.90;;;;;;5053097;28;20188;-57
2022/06/18 00:48:38;;;;;;;40.17;20.67;;;17.10;99.90;;;;;;5046198;28;20178;-57
2022/06/18 00:51:11;;;;;;;43.20;22.20;;;17.10;99.90;;;;;;5047720;28;20248;-57
2022/06/18 00:53:54;;;;;;;37.28;20.23;;;17.00;99.90;;;;;;5049823;28;20220;-57
2022/06/18 00:56:43;;;;;;;40.45;22.30;;;17.00;99.90;;;;;;5032983;28;20296;-57
2022/06/18 00:59:15;;;;;;;41.60;21.20;;;17.00;99.90;;;;;;5032576;28;20213;-57
2022/06/18 01:01:45;;;;;;;45.25;22.60;;;17.00;99.90;;;;;;5032710;28;20192;-57
2022/06/18 01:04:23;;;;;;;50.35;22.42;;;16.90;99.90;;;;;;5032947;28;20197;-57
2022/06/18 01:07:06;;;;;;;47.33;21.27;;;16.90;99.90;;;;;;5032690;28;20169;-58
2022/06/18 01:09:35;;;;;;;42.45;23.08;;;16.90;99.90;;;;;;5032603;28;20224;-57
2022/06/18 01:12:01;;;;;;;51.00;24.55;;;16.90;99.90;;;;;;5032645;28;20216;-57
2022/06/18 01:14:27;;;;;;;46.92;23.80;;;16.90;99.90;;;;;;5032524;28;21053;-57
2022/06/18 01:16:56;;;;;;;45.97;25.15;;;17.00;99.90;;;;;;5032715;28;20178;-57
2022/06/18 01:19:33;;;;;;;47.30;24.60;;;17.00;99.90;;;;;;5032269;28;20203;-57
2022/06/18 01:22:18;;;;;;;48.60;24.95;;;16.90;99.90;;;;;;5032536;28;20166;-57
2022/06/18 01:24:44;;;;;;;45.50;23.85;;;16.90;99.90;;;;;;5032346;28;20165;-57
2022/06/18 01:27:10;;;;;;;49.55;26.13;;;16.90;99.90;;;;;;5032290;28;20173;-57
2022/06/18 01:29:37;;;;;;;45.50;23.88;;;16.90;99.90;;;;;;5032259;28;20170;-57
2022/06/18 01:32:06;;;;;;;48.53;24.30;;;16.90;99.90;;;;;;5032127;28;20201;-57
2022/06/18 01:34:32;;;;;;;44.63;23.23;;;16.90;99.90;;;;;;5032130;28;20547;-57
2022/06/18 01:37:02;;;;;;;49.47;25.38;;;16.80;99.90;;;;;;5032271;28;20186;-57
2022/06/18 01:39:37;;;;;;;49.03;24.48;;;16.80;99.90;;;;;;5032352;28;20166;-57
2022/06/18 01:42:26;;;;;;;47.45;25.55;;;16.80;99.90;;;;;;5031992;28;20169;-57
2022/06/18 01:44:58;;;;;;;49.85;25.30;;;16.70;99.90;;;;;;5031839;28;20235;-57
2022/06/18 01:47:32;;;;;;;51.45;26.33;;;16.70;99.90;;;;;;5031897;28;20181;-57
2022/06/18 01:50:07;;;;;;;47.58;24.67;;;16.70;99.90;;;;;;5032065;28;20277;-57
2022/06/18 01:52:38;;;;;;;53.13;27.23;;;16.70;99.90;;;;;;5031652;28;20232;-57
2022/06/18 01:55:12;;;;;;;48.85;25.42;;;16.70;99.90;;;;;;5031842;28;20636;-57
2022/06/18 01:57:43;;;;;;;49.80;24.90;;;16.60;99.90;;;;;;5031728;28;20189;-57
2022/06/18 02:00:12;;;;;;;45.03;22.52;;;16.70;99.90;;;;;;5031615;28;20189;-57
2022/06/18 02:02:40;;;;;;;42.28;22.20;;;16.80;99.90;;;;;;5031442;28;20519;-57
2022/06/18 02:05:07;;;;;;;41.67;23.02;;;16.80;99.90;;;;;;5031541;28;20560;-57
2022/06/18 02:07:33;;;;;;;42.67;23.42;;;16.80;99.90;;;;;;5031649;28;20178;-59
2022/06/18 02:10:05;;;;;;;43.10;21.80;;;16.80;99.90;;;;;;5031501;28;20636;-57
2022/06/18 02:12:38;;;;;;;44.05;23.30;;;16.80;99.90;;;;;;5031143;28;20275;-57
2022/06/18 02:15:11;;;;;;;43.53;21.70;;;16.90;99.90;;;;;;5031413;28;20185;-57
2022/06/18 02:17:39;;;;;;;45.35;21.90;;;17.00;99.90;;;;;;5031461;28;20202;-57
2022/06/18 02:20:15;;;;;;;37.53;21.55;;;17.00;99.90;;;;;;5031450;28;20185;-57
2022/06/18 02:22:47;;;;;;;45.45;22.17;;;17.10;99.90;;;;;;5031410;28;20226;-57
2022/06/18 02:25:15;;;;;;;39.90;20.80;;;17.00;99.90;;;;;;5031339;28;20170;-57
2022/06/18 02:27:41;;;;;;;44.53;22.75;;;17.10;99.90;;;;;;5031330;28;20193;-56
2022/06/18 02:30:20;;;;;;;41.13;21.92;;;17.10;99.90;;;;;;5031445;28;20182;-57
2022/06/18 02:33:03;;;;;;;45.13;23.05;;;17.10;99.90;;;;;;5031182;28;20205;-56
2022/06/18 02:35:32;;;;;;;42.55;22.25;;;17.10;99.90;;;;;;5031074;28;20185;-57
2022/06/18 02:37:58;;;;;;;43.88;21.15;;;17.10;99.90;;;;;;5030999;28;20640;-57
2022/06/18 02:40:29;;;;;;;41.33;21.60;;;17.20;99.90;;;;;;5031039;28;20189;-57
2022/06/18 02:42:58;;;;;;;43.58;23.02;;;17.10;99.90;;;;;;5031167;28;20189;-57
2022/06/18 02:45:26;;;;;;;41.45;22.52;;;17.10;99.90;;;;;;5030981;28;20166;-57
2022/06/18 02:47:55;;;;;;;42.15;20.92;;;17.20;99.90;;;;;;5031005;28;20185;-57
2022/06/18 02:50:23;;;;;;;38.45;21.23;;;17.10;99.90;;;;;;5031043;28;20216;-57
2022/06/18 02:52:52;;;;;;;37.78;20.88;;;17.10;99.90;;;;;;5030616;28;20221;-57
2022/06/18 02:55:37;;;;;;;40.72;20.65;;;17.10;99.90;;;;;;5031027;28;20174;-57
2022/06/18 02:58:11;;;;;;;40.60;20.65;;;17.10;99.90;;;;;;5030203;28;20182;-57
2022/06/18 03:00:39;;;;;;;36.83;21.00;;;17.10;99.90;;;;;;5034267;28;20223;-57
2022/06/18 03:03:11;;;;;;;41.30;21.70;;;17.10;99.90;;;;;;5045809;28;20173;-57
2022/06/18 03:05:38;;;;;;;41.33;20.70;;;17.10;99.90;;;;;;5050705;28;20200;-57
2022/06/18 03:08:04;;;;;;;43.33;21.23;;;17.20;99.90;;;;;;5050597;28;20185;-57
2022/06/18 03:13:18;;;;;;;47.58;22.23;;;17.20;99.90;;;;;;5050884;28;20648;-57
2022/06/18 03:15:44;;;;;;;47.67;21.38;;;17.30;99.90;;;;;;5050730;28;20197;-57
2022/06/18 03:18:10;;;;;;;51.00;22.05;;;17.20;99.90;;;;;;5044303;28;20176;-57
2022/06/18 03:20:55;;;;;;;43.42;20.67;;;17.20;99.90;;;;;;5029505;28;20253;-58
2022/06/18 03:23:23;;;;;;;47.20;21.17;;;17.20;99.90;;;;;;5030540;28;20177;-57
2022/06/18 03:25:49;;;;;;;47.40;20.23;;;17.10;99.90;;;;;;5034174;28;20178;-57
2022/06/18 03:28:15;;;;;;;39.90;21.70;;;17.10;99.90;;;;;;5032568;28;20540;-57
2022/06/18 03:30:42;;;;;;;43.35;20.13;;;17.20;99.90;;;;;;5049863;28;20177;-56
2022/06/18 03:33:09;;;;;;;49.95;21.42;;;17.20;99.90;;;;;;5050541;28;20180;-57
2022/06/18 03:35:35;;;;;;;42.53;19.23;;;17.20;99.90;;;;;;5050466;28;20647;-58
2022/06/18 03:38:01;;;;;;;41.42;19.63;;;17.30;99.90;;;;;;5050416;28;20178;-57
2022/06/18 03:40:28;;;;;;;40.60;20.50;;;17.30;99.90;;;;;;5050334;28;20166;-57
2022/06/18 03:42:53;;;;;;;45.65;20.83;;;17.30;99.90;;;;;;5050267;28;20212;-57
2022/06/18 03:45:19;;;;;;;42.75;20.38;;;17.30;99.90;;;;;;5050304;28;20225;-57
2022/06/18 03:47:46;;;;;;;42.10;20.73;;;17.30;99.90;;;;;;5050373;28;20528;-57
2022/06/18 03:50:19;;;;;;;48.10;20.20;;;17.30;99.90;;;;;;5050388;28;20169;-57
2022/06/18 03:52:45;;;;;;;41.90;20.40;;;17.40;99.90;;;;;;5050045;28;20252;-56
2022/06/18 03:55:12;;;;;;;40.83;19.75;;;17.40;99.90;;;;;;5050188;28;20620;-58
2022/06/18 03:57:39;;;;;;;41.30;19.25;;;17.40;99.90;;;;;;5050376;28;20181;-58
2022/06/18 04:00:07;;;;;;;48.33;20.83;;;17.40;99.90;;;;;;5050242;28;20612;-58
2022/06/18 04:02:33;;;;;;;41.35;20.23;;;17.30;99.90;;;;;;5050213;28;20177;-58
2022/06/18 04:04:58;;;;;;;43.35;19.70;;;17.30;99.90;;;;;;5050251;28;20192;-57
2022/06/18 04:07:25;;;;;;;45.08;19.95;;;17.40;99.90;;;;;;5050165;28;20640;-56
2022/06/18 04:09:53;;;;;;;43.47;19.88;;;17.50;99.90;;;;;;5052350;28;20170;-56
2022/06/18 04:12:20;;;;;;;38.28;16.98;;;17.50;99.90;;;;;;5053510;28;20220;-57
2022/06/18 04:14:45;;;;;;;34.42;17.52;;;17.50;99.90;;;;;;5053718;28;20173;-56
2022/06/18 04:17:13;;;;;;;42.30;18.95;;;17.50;99.90;;;;;;5053544;28;20179;-57
2022/06/18 04:19:39;;;;;;;40.00;19.20;;;17.50;99.90;;;;;;5053248;28;20223;-57
2022/06/18 04:22:05;;;;;;;33.35;17.73;;;17.50;99.90;;;;;;5053388;28;20260;-60
2022/06/18 04:24:31;;;;;;;28.85;16.85;;;17.50;99.90;;;;;;5053094;28;20252;-58
2022/06/18 04:26:58;;;;;;;39.10;17.73;;;17.40;99.90;;;;;;5053109;28;20248;-57
2022/06/18 04:29:24;;;;;;;34.85;17.48;;;17.30;99.90;;;;;;5053034;28;20268;-57
2022/06/18 04:31:50;;;;;;;34.67;16.45;;;17.30;99.90;;;;;;5053021;28;20304;-57
2022/06/18 04:34:16;;;;;;;32.88;17.15;;;17.40;99.90;;;;;;5052873;28;20176;-57
2022/06/18 04:36:41;;;;;;;29.63;16.85;;;17.40;99.90;;;;;;5052978;28;20173;-57
2022/06/18 04:39:09;;;;;;;34.05;18.08;;;17.40;99.90;;;;;;5052793;28;20213;-57
2022/06/18 04:41:34;;;;;;;39.35;17.98;;;17.50;99.90;;;;;;5052887;28;20177;-57
2022/06/18 04:44:00;;;;;;;35.63;18.92;;;17.40;99.90;;;;;;5052855;28;20169;-57
2022/06/18 04:46:26;;;;;;;33.03;18.35;;;17.50;99.90;;;;;;5052837;28;20466;-57
2022/06/18 04:48:52;;;;;;;36.00;19.63;;;17.50;99.90;;;;;;5052561;28;20169;-57
2022/06/18 04:51:18;;;;;;;35.17;17.95;;;17.50;99.90;;;;;;5052483;28;20231;-56
2022/06/18 04:53:43;;;;;;;34.25;17.90;;;17.40;99.90;;;;;;5052699;28;20185;-56
2022/06/18 04:56:09;;;;;;;31.85;18.20;;;17.40;99.90;;;;;;5052588;28;20201;-57
2022/06/18 04:58:35;;;;;;;30.42;17.45;;;17.40;99.90;;;;;;5052566;28;20648;-57
2022/06/18 05:01:01;;;;;;;34.08;18.02;;;17.50;99.90;;;;;;5052805;28;20279;-57
2022/06/18 05:03:27;;;;;;;33.17;18.00;;;17.50;99.90;;;;;;5052379;28;20181;-57
2022/06/18 05:05:53;;;;;;;31.63;17.95;;;17.40;99.90;;;;;;5052451;28;20177;-57
2022/06/18 05:08:18;;;;;;;33.00;18.33;;;17.50;99.90;;;;;;5052339;28;20679;-57
2022/06/18 05:10:44;;;;;;;32.63;18.35;;;17.50;99.90;;;;;;5052305;28;20188;-57
2022/06/18 05:13:11;;;;;;;30.95;16.80;;;17.50;99.90;;;;;;5052227;28;20714;-57
2022/06/18 05:15:38;;;;;;;32.00;17.52;;;17.60;99.90;;;;;;5052168;28;20223;-58
2022/06/18 05:18:04;;;;;;;32.38;16.40;;;17.70;99.90;;;;;;5052221;28;20238;-57
2022/06/18 05:20:30;;;;;;;28.83;16.98;;;17.70;99.90;;;;;;5051709;28;20260;-57
2022/06/18 05:22:56;;;;;;;29.50;17.27;;;17.70;99.90;;;;;;5052136;28;20707;-57
2022/06/18 05:25:22;;;;;;;27.98;17.10;;;17.80;99.90;;;;;;5052001;28;20170;-58
2022/06/18 05:27:48;;;;;;;27.20;16.55;;;17.70;99.90;;;;;;5052173;28;20187;-58
2022/06/18 05:30:17;;;;;;;28.95;17.05;;;17.80;99.90;;;;;;5051977;28;20713;-58
2022/06/18 05:32:43;;;;;;;26.17;16.20;;;17.90;99.90;;;;;;5051700;28;20282;-57
2022/06/18 05:35:10;;;;;;;29.17;16.58;;;17.90;99.90;;;;;;5052004;28;20216;-57
2022/06/18 05:37:37;;;;;;;26.73;16.50;;;18.00;99.90;;;;;;5051922;28;20196;-58
2022/06/18 05:40:04;;;;;;;29.10;16.48;;;18.00;99.90;;;;;;5051745;28;20180;-57
2022/06/18 05:42:30;;;;;;;26.48;16.73;;;18.10;99.90;;;;;;5051767;28;20260;-58
2022/06/18 05:44:56;;;;;;;26.30;16.05;;;18.10;99.90;;;;;;5051744;28;20212;-57
2022/06/18 05:47:25;;;;;;;26.88;16.15;;;18.20;99.90;;;;;;5051621;28;20177;-58
2022/06/18 05:49:52;;;;;;;27.58;16.42;;;18.20;99.90;;;;;;5051602;28;20169;-58
2022/06/18 05:52:20;;;;;;;30.40;16.50;;;18.30;99.90;;;;;;5051347;28;20236;-57
2022/06/18 05:54:46;;;;;;;27.55;15.75;;;18.40;99.90;;;;;;5051561;28;20175;-57
2022/06/18 05:57:12;;;;;;;27.80;15.25;;;18.40;99.90;;;;;;5051536;28;20185;-57
2022/06/18 05:59:38;;;;;;;25.33;14.80;;;18.40;99.90;;;;;;5042407;28;20174;-58
2022/06/18 06:02:04;;;;;;;29.73;17.45;;;18.60;99.90;;;;;;5047110;28;20177;-57
2022/06/18 06:04:30;;;;;;;31.52;17.02;;;18.60;99.90;;;;;;5049120;28;20169;-59
2022/06/18 06:06:56;;;;;;;31.05;16.52;;;18.70;99.90;;;;;;5031263;28;20181;-58
2022/06/18 06:12:11;;;;;;;27.85;15.57;;;18.50;99.90;;;;;;5031206;28;20224;-58
2022/06/18 06:14:39;;;;;;;33.78;17.17;;;18.60;99.90;;;;;;5031312;28;20162;-58
2022/06/18 06:17:10;;;;;;;32.72;17.17;;;18.70;99.90;;;;;;5036514;28;20674;-57
2022/06/18 06:19:36;;;;;;;34.67;17.55;;;18.80;99.90;;;;;;5051162;28;20157;-58
2022/06/18 06:22:02;;;;;;;36.58;18.73;;;18.80;99.90;;;;;;5051005;28;20260;-57
2022/06/18 06:24:28;;;;;;;34.50;18.42;;;18.80;99.90;;;;;;5050969;28;20177;-57
2022/06/18 06:26:54;;;;;;;35.25;18.42;;;18.80;99.90;;;;;;5050882;28;20174;-58
2022/06/18 06:29:19;;;;;;;35.03;18.05;;;18.90;99.90;;;;;;5050869;28;20176;-56
2022/06/18 06:31:45;;;;;;;34.30;17.38;;;18.90;99.90;;;;;;5050121;28;20213;-57
2022/06/18 06:34:11;;;;;;;30.35;17.02;;;19.00;99.90;;;;;;5050714;28;20197;-58
2022/06/18 06:36:36;;;;;;;32.25;17.00;;;18.90;99.90;;;;;;5050744;28;20692;-55
2022/06/18 06:39:03;;;;;;;33.00;17.83;;;18.90;99.90;;;;;;5050733;28;20640;-57
2022/06/18 06:41:30;;;;;;;37.30;18.52;;;18.90;99.90;;;;;;5050626;28;20177;-57
2022/06/18 06:43:56;;;;;;;34.38;18.42;;;18.90;99.90;;;;;;5050894;28;20169;-57
2022/06/18 06:46:22;;;;;;;34.58;18.30;;;18.90;99.90;;;;;;5050828;28;20264;-57
2022/06/18 06:48:48;;;;;;;38.97;17.67;;;18.90;99.90;;;;;;5050570;28;20306;-58
2022/06/18 06:51:19;;;;;;;36.10;18.20;;;18.90;99.90;;;;;;5050558;28;20216;-57
2022/06/18 06:53:45;;;;;;;37.25;19.60;;;18.90;99.90;;;;;;5043782;28;20193;-57
2022/06/18 06:58:57;;;;;;;36.33;18.83;;;18.80;99.90;;;;;;5030625;28;20223;-57
2022/06/18 07:01:22;;;;;;;37.97;18.75;;;18.80;99.90;;;;;;5030502;28;20166;-58
2022/06/18 07:03:48;;;;;;;34.17;18.77;;;18.80;99.90;;;;;;5030514;28;20174;-58
2022/06/18 07:06:16;;;;;;;42.80;21.50;;;18.80;99.90;;;;;;5030526;28;20166;-58
2022/06/18 07:08:43;;;;;;;50.50;23.65;;;18.80;99.90;;;;;;5030689;28;20190;-58
2022/06/18 07:11:09;;;;;;;52.80;22.23;;;18.70;99.90;;;;;;5030452;28;20220;-57
2022/06/18 07:13:34;;;;;;;41.72;18.63;;;18.50;99.90;;;;;;5030695;28;20192;-57
2022/06/18 07:16:00;;;;;;;38.80;16.50;;;18.40;99.90;;;;;;5030484;28;20188;-57
2022/06/18 07:18:31;;;;;;;41.45;16.02;;;18.30;99.90;;;;;;5030489;28;20189;-57
2022/06/18 07:20:59;;;;;;;33.25;12.88;;;18.30;99.90;;;;;;5030465;28;20247;-57
2022/06/18 07:23:24;;;;;;;26.45;11.48;;;18.20;99.90;;;;;;5030440;28;20658;-57
2022/06/18 07:25:50;;;;;;;30.55;11.43;;;18.20;99.90;;;;;;5030394;28;20170;-57
2022/06/18 07:28:16;;;;;;;18.08;10.32;;;18.10;99.90;;;;;;5030554;28;20533;-57
2022/06/18 07:30:42;;;;;;;26.13;10.43;;;18.10;99.90;;;;;;5030498;28;20262;-57
2022/06/18 07:33:12;;;;;;;22.40;10.13;;;18.10;99.90;;;;;;5030336;28;20432;-57
2022/06/18 07:35:38;;;;;;;20.63;9.95;;;18.10;99.90;;;;;;5030406;28;20165;-57
2022/06/18 07:38:04;;;;;;;23.67;10.23;;;18.10;99.90;;;;;;5030349;28;20228;-57
2022/06/18 07:40:36;;;;;;;21.95;9.50;;;18.10;99.90;;;;;;5030354;28;20177;-57
2022/06/18 07:43:06;;;;;;;19.80;9.45;;;18.10;99.90;;;;;;5031414;28;20174;-57
2022/06/18 07:45:32;;;;;;;19.65;8.98;;;18.20;99.90;;;;;;5034030;28;20174;-57
2022/06/18 07:47:57;;;;;;;21.15;9.32;;;18.20;99.90;;;;;;5033754;28;20658;-57
2022/06/18 07:50:23;;;;;;;18.80;8.38;;;18.30;99.90;;;;;;5033881;28;20174;-58
2022/06/18 07:52:49;;;;;;;19.48;8.20;;;18.30;99.90;;;;;;5033654;28;20229;-57
2022/06/18 07:55:22;;;;;;;14.13;8.18;;;18.20;99.90;;;;;;5033746;28;20169;-58
2022/06/18 07:57:49;;;;;;;18.13;8.93;;;18.20;99.90;;;;;;5033923;28;20185;-57
2022/06/18 08:00:17;;;;;;;17.90;8.23;;;18.20;99.90;;;;;;5033591;28;20173;-57
2022/06/18 08:02:43;;;;;;;19.27;7.60;;;18.20;99.90;;;;;;5033558;28;20181;-57
2022/06/18 08:05:12;;;;;;;14.98;8.27;;;18.10;99.90;;;;;;5033607;28;20173;-57
2022/06/18 08:07:38;;;;;;;14.38;7.40;;;18.10;99.90;;;;;;5033826;28;20182;-57
2022/06/18 08:10:05;;;;;;;17.33;7.20;;;18.10;99.90;;;;;;5033509;28;20162;-57
2022/06/18 08:12:32;;;;;;;24.67;7.63;;;18.10;99.90;;;;;;5033446;28;20285;-57
2022/06/18 08:14:59;;;;;;;14.38;7.07;;;18.20;99.90;;;;;;5033406;28;20165;-57
2022/06/18 08:17:25;;;;;;;14.30;6.13;;;18.10;99.90;;;;;;5033196;28;20516;-57
2022/06/18 08:19:51;;;;;;;17.58;7.63;;;18.10;99.90;;;;;;5033306;28;20170;-57
2022/06/18 08:22:19;;;;;;;16.25;7.05;;;18.00;99.90;;;;;;5033326;28;20244;-57
2022/06/18 08:24:46;;;;;;;10.40;6.53;;;18.10;99.90;;;;;;5033231;28;20162;-57
2022/06/18 08:27:14;;;;;;;17.02;6.68;;;18.10;99.90;;;;;;5033208;28;20229;-58
2022/06/18 08:29:40;;;;;;;16.27;6.57;;;18.00;99.90;;;;;;5033103;28;20202;-57
2022/06/18 08:32:06;;;;;;;13.40;6.63;;;17.90;99.90;;;;;;5032890;28;20614;-57
2022/06/18 08:34:32;;;;;;;15.88;6.18;;;17.90;99.90;;;;;;5032976;28;20523;-57
2022/06/18 08:36:58;;;;;;;12.05;5.63;;;17.90;99.90;;;;;;5032914;28;20174;-58
2022/06/18 08:39:24;;;;;;;14.02;5.72;;;17.90;99.90;;;;;;5032676;28;20173;-57
2022/06/18 08:42:11;;;;;;;12.80;5.53;;;17.80;99.90;;;;;;5032922;28;20170;-57
2022/06/18 08:45:14;;;;;;;13.43;5.65;;;17.80;99.90;;;;;;5033225;28;20166;-56
2022/06/18 08:47:55;;;;;;;12.65;5.18;;;17.80;99.90;;;;;;5032796;28;20182;-56
2022/06/18 08:50:26;;;;;;;13.30;4.90;;;17.70;99.90;;;;;;5032580;28;20676;-58
2022/06/18 08:53:11;;;;;;;15.73;5.45;;;17.70;99.90;;;;;;5032545;28;20692;-56
2022/06/18 08:56:16;;;;;;;14.75;4.53;;;17.70;99.90;;;;;;5031904;28;20162;-57
2022/06/18 08:58:52;;;;;;;13.68;4.32;;;17.60;99.90;;;;;;5025031;28;20186;-57
2022/06/18 09:01:17;;;;;;;14.07;4.00;;;17.40;99.90;;;;;;5032792;28;20188;-57
2022/06/18 09:04:04;;;;;;;9.55;3.75;;;17.30;99.90;;;;;;5032490;28;20165;-57
2022/06/18 09:06:48;;;;;;;23.50;4.28;;;17.20;99.90;;;;;;5032604;28;20178;-57
2022/06/18 09:09:22;;;;;;;16.58;4.15;;;17.20;99.90;;;;;;5032346;28;20192;-57
2022/06/18 09:11:57;;;;;;;10.45;4.00;;;17.20;99.90;;;;;;5032266;28;20209;-57
2022/06/18 09:14:36;;;;;;;12.63;3.55;;;17.20;99.90;;;;;;5032414;28;20169;-57
2022/06/18 09:17:12;;;;;;;21.27;4.10;;;17.10;99.90;;;;;;5032307;28;20178;-57
2022/06/18 09:19:41;;;;;;;17.27;3.03;;;17.10;99.90;;;;;;5032156;28;20173;-57
2022/06/18 09:22:17;;;;;;;9.48;3.00;;;16.90;99.90;;;;;;5032215;28;20649;-57
2022/06/18 09:24:49;;;;;;;10.23;3.17;;;16.90;99.90;;;;;;5039970;28;20235;-57
2022/06/18 09:27:25;;;;;;;15.98;3.28;;;16.80;99.90;;;;;;5051923;28;20165;-57
2022/06/18 09:30:32;;;;;;;11.68;3.15;;;16.80;99.90;;;;;;5038262;28;20250;-57
2022/06/18 09:33:05;;;;;;;11.38;2.85;;;16.90;99.90;;;;;;4990171;28;20246;-57
2022/06/18 09:35:46;;;;;;;13.35;3.30;;;16.80;99.90;;;;;;4990139;28;20217;-57
2022/06/18 09:38:28;;;;;;;8.70;2.80;;;16.70;99.90;;;;;;5016472;28;20184;-57
2022/06/18 09:41:01;;;;;;;19.83;3.40;;;16.80;99.90;;;;;;5035753;28;20183;-57
2022/06/18 09:43:57;;;;;;;11.02;2.80;;;16.80;99.90;;;;;;5051704;28;20177;-58
2022/06/18 09:46:25;;;;;;;16.17;3.15;;;16.80;99.90;;;;;;5051527;28;20188;-58
2022/06/18 09:48:51;;;;;;;10.43;2.60;;;16.80;99.90;;;;;;5051270;28;20169;-57
2022/06/18 09:51:57;;;;;;;7.82;2.83;;;16.70;99.90;;;;;;5051310;28;20211;-57
2022/06/18 09:54:28;;;;;;;16.58;3.28;;;15.40;99.90;;;;;;5051605;28;20200;-58
2022/06/18 09:56:58;;;;;;;10.25;2.75;;;16.60;99.90;;;;;;5051367;28;20193;-58
2022/06/18 09:59:39;;;;;;;15.75;2.97;;;16.50;99.90;;;;;;5051455;28;20213;-58
2022/06/18 10:02:22;;;;;;;16.88;3.25;;;16.50;99.90;;;;;;5051434;28;20184;-58
2022/06/18 10:07:38;;;;;;;14.00;3.60;;;16.40;99.90;;;;;;5051471;28;20274;-55
2022/06/18 10:10:14;;;;;;;15.77;3.40;;;16.50;99.90;;;;;;5051462;28;20185;-55
2022/06/18 10:13:00;;;;;;;19.77;3.25;;;16.60;99.90;;;;;;5051200;28;20291;-56
2022/06/18 10:15:28;;;;;;;18.45;3.42;;;16.60;99.90;;;;;;5051005;28;20666;-57
2022/06/18 10:18:01;;;;;;;15.98;3.95;;;16.60;99.90;;;;;;5051006;28;20173;-57
2022/06/18 10:20:42;;;;;;;11.45;3.22;;;16.60;99.90;;;;;;5051048;28;20173;-57
2022/06/18 10:23:51;;;;;;;17.15;3.88;;;16.70;99.90;;;;;;5050991;28;20244;-57
2022/06/18 10:26:22;;;;;;;15.93;3.75;;;16.70;99.90;;;;;;4989272;28;20178;-57
2022/06/18 10:29:18;;;;;;;12.13;3.17;;;16.80;99.90;;;;;;5040754;28;20212;-57
2022/06/18 10:31:47;;;;;;;17.05;3.15;;;16.80;99.90;;;;;;5051061;28;20209;-57
2022/06/18 10:34:43;;;;;;;12.25;2.90;;;16.80;99.90;;;;;;5050815;28;20188;-56
2022/06/18 10:37:44;;;;;;;20.35;3.17;;;16.70;99.90;;;;;;5050908;28;20185;-57
2022/06/18 10:40:42;;;;;;;19.40;3.10;;;16.80;99.90;;;;;;5050975;28;20169;-57
2022/06/18 10:43:37;;;;;;;16.02;3.22;;;16.70;99.90;;;;;;5050731;28;20207;-57
2022/06/18 10:46:09;;;;;;;16.05;2.95;;;16.70;99.90;;;;;;5042734;28;20177;-57
2022/06/18 10:48:36;;;;;;;11.80;3.03;;;16.80;99.90;;;;;;5050813;28;20227;-57
2022/06/18 10:51:02;;;;;;;13.65;2.80;;;16.90;99.90;;;;;;5050503;28;20179;-57
2022/06/18 10:53:45;;;;;;;17.70;2.85;;;16.80;99.90;;;;;;5050264;28;20228;-57
2022/06/18 10:56:21;;;;;;;24.90;2.80;;;16.80;99.90;;;;;;5050644;28;20173;-57
2022/06/18 10:58:51;;;;;;;13.32;2.85;;;16.80;99.90;;;;;;5050540;28;20574;-56
2022/06/18 11:01:34;;;;;;;15.75;2.65;;;16.80;99.90;;;;;;5050639;28;20173;-57
2022/06/18 11:04:20;;;;;;;21.88;2.80;;;16.80;99.90;;;;;;5050539;28;20196;-57
2022/06/18 11:06:47;;;;;;;16.65;2.40;;;16.80;99.90;;;;;;5050643;28;20252;-57
2022/06/18 11:09:22;;;;;;;14.70;2.53;;;16.60;99.90;;;;;;5032612;28;20889;-56
2022/06/18 11:12:00;;;;;;;16.48;3.25;;;16.60;99.90;;;;;;5050409;28;20561;-57
2022/06/18 11:14:26;;;;;;;15.57;3.13;;;16.50;99.90;;;;;;5050511;28;20206;-57
2022/06/18 11:16:55;;;;;;;18.95;3.15;;;16.50;99.90;;;;;;5050651;28;20177;-57
2022/06/18 11:19:48;;;;;;;29.30;3.80;;;16.50;99.90;;;;;;5054041;28;20187;-57
2022/06/18 11:22:28;;;;;;;22.15;3.80;;;16.40;99.90;;;;;;5054481;28;20188;-57
2022/06/18 11:24:59;;;;;;;26.35;3.83;;;16.50;99.90;;;;;;5054492;28;20169;-57
2022/06/18 11:27:33;;;;;;;17.92;3.33;;;16.50;99.90;;;;;;5054380;28;20204;-57
2022/06/18 11:30:05;;;;;;;13.38;3.17;;;16.40;99.90;;;;;;5053127;28;20184;-57
2022/06/18 11:32:35;;;;;;;17.13;3.53;;;16.30;99.90;;;;;;5054209;28;20209;-57
2022/06/18 11:35:05;;;;;;;20.55;3.40;;;16.30;99.90;;;;;;5054220;28;20177;-58
2022/06/18 11:37:32;;;;;;;20.40;3.55;;;16.60;99.90;;;;;;5054222;28;20173;-57
2022/06/18 11:40:03;;;;;;;15.38;3.58;;;16.70;99.90;;;;;;5054177;28;20678;-57
2022/06/18 11:42:37;;;;;;;16.92;3.42;;;16.70;99.90;;;;;;5053998;28;20184;-57
2022/06/18 11:45:27;;;;;;;19.30;3.00;;;16.60;99.90;;;;;;5054025;28;20184;-58
2022/06/18 11:48:18;;;;;;;11.80;2.65;;;17.40;99.90;;;;;;5043440;28;20269;-57
2022/06/18 11:50:51;;;;;;;10.93;2.65;;;16.50;99.90;;;;;;5053999;28;20168;-57
2022/06/18 11:53:25;;;;;;;11.35;3.28;;;16.30;99.90;;;;;;5045896;28;20230;-58
2022/06/18 11:55:55;;;;;;;12.73;3.25;;;16.10;99.90;;;;;;5033732;28;20255;-57
2022/06/18 11:58:40;;;;;;;12.13;2.80;;;16.10;99.90;;;;;;5033992;28;20192;-58
2022/06/18 12:01:32;;;;;;;9.85;3.10;;;16.00;99.90;;;;;;5033920;28;20201;-58
2022/06/18 12:04:25;;;;;;;15.85;3.55;;;16.00;99.90;;;;;;5017957;28;20185;-57
2022/06/18 12:07:04;;;;;;;19.10;3.50;;;15.90;99.90;;;;;;5027791;28;20190;-57
2022/06/18 12:09:31;;;;;;;14.15;3.75;;;15.80;99.90;;;;;;5033568;28;20166;-57
2022/06/18 12:12:03;;;;;;;14.35;3.53;;;15.90;99.90;;;;;;5033533;28;20696;-57
2022/06/18 12:14:48;;;;;;;16.50;3.33;;;15.90;99.90;;;;;;5033590;28;20232;-57
2022/06/18 12:17:30;;;;;;;14.52;3.50;;;15.90;99.90;;;;;;5033427;28;20174;-57
2022/06/18 12:20:38;;;;;;;10.50;3.35;;;15.70;99.90;;;;;;5033213;28;20659;-57
2022/06/18 12:23:18;;;;;;;12.73;3.83;;;15.70;99.90;;;;;;4979334;28;20198;-57
2022/06/18 12:26:12;;;;;;;16.35;4.28;;;15.80;99.90;;;;;;5033336;28;20158;-56
2022/06/18 12:28:54;;;;;;;13.18;3.97;;;15.80;99.90;;;;;;5033033;28;20181;-56
2022/06/18 12:31:23;;;;;;;12.50;4.35;;;15.80;99.90;;;;;;5032467;28;20712;-56
2022/06/18 12:33:57;;;;;;;21.20;5.65;;;15.90;99.90;;;;;;5033259;28;20182;-58
2022/06/18 12:36:51;;;;;;;14.13;4.72;;;15.90;99.90;;;;;;5032975;28;20207;-56
2022/06/18 12:39:29;;;;;;;16.05;5.65;;;15.80;99.90;;;;;;5031028;28;20216;-57
2022/06/18 12:42:02;;;;;;;21.98;6.78;;;15.70;99.90;;;;;;5032956;28;20230;-57
2022/06/18 12:45:00;;;;;;;14.82;5.55;;;15.60;99.90;;;;;;5031549;28;20174;-57
2022/06/18 12:47:50;;;;;;;14.95;5.65;;;15.60;99.90;;;;;;5012106;28;20190;-57
2022/06/18 12:50:47;;;;;;;19.83;6.05;;;15.60;99.90;;;;;;5032898;28;20170;-56
2022/06/18 12:53:36;;;;;;;18.80;6.82;;;15.80;99.90;;;;;;5021837;28;20217;-57
2022/06/18 12:56:35;;;;;;;20.42;6.85;;;16.00;99.90;;;;;;5032864;28;20249;-57
2022/06/18 12:59:10;;;;;;;18.67;6.35;;;16.20;99.90;;;;;;5032669;28;20191;-57
2022/06/18 13:02:16;;;;;;;15.95;6.13;;;16.30;99.90;;;;;;5032691;28;20656;-57
2022/06/18 13:05:03;;;;;;;18.40;5.57;;;16.30;99.90;;;;;;5002667;28;20182;-57
2022/06/18 13:07:30;;;;;;;13.98;4.93;;;16.50;99.90;;;;;;5032516;28;20672;-57